首页
METAR-TAF:

METAR-TAF

机场 :

埃夫勒, 法国

纬度: 49-01N, 经度: 001-13E, 海拔: 141米

当前天气观测

该预报发布于36分钟前的16:00 UTC
风速14节,风向西转西北,在西转西南北转西北之间变化
温度 13°C
湿度 67%
气压 1001 hPa
能见度10公里或以上
多云层高于2800英尺
阴天层高于3600英尺

METAR: LFOE 051600Z AUTO 29014KT 250V340 9999 BKN028 OVC036 13/07 Q1001 TEMPO 29020G32KT 4000 SHRA SCT016 BKN040TCU

时间: 18:36 (16:36 UTC)

预报

该预报发布于26分钟前的16:10 UTC
预报有效从05日的 16点(UTC)到 06日的 15点(UTC)
风速15节,风向西,有时为25节阵风
能见度10公里或以上
多云层高于4000英尺
短暂存在
从 05日的 16点(UTC)到 05日的 18点(UTC)
风速20节,风向西转西北,有时为32节阵风
几率 40% :
短暂存在
从 05日的 16点(UTC)到 05日的 20点(UTC)
能見度: 4000
散云层高于1600英尺
多云层高于4000英尺, 塔状积云.
阵雨
成为
从 05日的 19点(UTC)到 05日的 21点(UTC)
风速12节,风向西
短暂存在
从 06日的 00点(UTC)到 06日的 05点(UTC)
多云层高于2500英尺, 塔状积云.
成为
从 06日的 09点(UTC)到 06日的 11点(UTC)
风速15节,风向西,有时为25节阵风
几率 40% :
短暂存在
从 06日的 09点(UTC)到 06日的 15点(UTC)
能見度: 4000
多云层高于6000英尺, 塔状积云.
小阵雨
短暂存在
从 06日的 11点(UTC)到 06日的 15点(UTC)
风速20节,风向西,有时为30节阵风

TAF: LFOE 051610Z 0516/0615 28015G25KT 9999 BKN040 TEMPO 0516/0518 29020G32KT PROB40 TEMPO 0516/0520 4000 SHRA SCT016 BKN040TCU BECMG 0519/0521 27012KT TEMPO 0600/0605 BKN025TCU BECMG 0609/0611 28015G25KT PROB40 TEMPO 0609/0615 4000 -SHRA BKN060TCU TEMPO 0611/0615 28020G30KT

超过4000个机场的气象观测和天气预报(METAR&TAF报告)。

可查询的气象台以黄色和红色小点在地图上表示。

将鼠标移到小点上方,可查看气象台名称。

然后点击查看天气观测和预报。

如需切换地图:点击带黑十字的绿色按钮放大地图;点击带横线的绿色按钮缩小地图;或者点击绿色箭头查看邻近地区的地图。


METAR-TAF: